Time;durP1;ratioP1;P1;durP2;ratioP2;P2;SDS_P1;SDS_P2;PMS_P1;PMS_P2;Temp;Humidity;BMP_temperature;BMP_pressure;BME280_temperature;BME280_humidity;BME280_pressure;Samples;Min_cycle;Max_cycle;Signal;HPM_P1;HPM_P2
2023/12/24 00:00:23;;;;;;;5.60;3.58;;;;;;;7.03;67.98;99529.72;5089586;28;20097;-80
2023/12/24 00:02:48;;;;;;;6.90;4.00;;;;;;;7.22;67.43;99571.81;5090352;28;20432;-79
2023/12/24 00:05:14;;;;;;;4.53;3.42;;;;;;;7.16;67.52;99577.69;5090560;28;20076;-77
2023/12/24 00:07:39;;;;;;;7.53;4.05;;;;;;;7.16;67.66;99564.31;5089746;28;20497;-78
2023/12/24 00:10:05;;;;;;;4.82;3.97;;;;;;;7.22;67.72;99561.13;5090697;28;20032;-80
2023/12/24 00:12:31;;;;;;;6.50;4.45;;;;;;;7.25;67.82;99562.72;5090981;28;20566;-79
2023/12/24 00:14:56;;;;;;;13.18;7.32;;;;;;;7.22;67.75;99555.75;5091509;28;20111;-77
2023/12/24 00:17:22;;;;;;;17.70;7.28;;;;;;;7.30;67.83;99564.00;5091446;28;20038;-79
2023/12/24 00:19:47;;;;;;;8.50;6.00;;;;;;;7.22;67.20;99577.16;5100647;28;20478;-77
2023/12/24 00:22:13;;;;;;;10.10;5.75;;;;;;;7.24;67.91;99575.22;5100367;28;20027;-77
2023/12/24 00:24:38;;;;;;;9.95;4.35;;;;;;;7.21;67.61;99591.53;5090346;28;20031;-80
2023/12/24 00:27:04;;;;;;;8.13;4.18;;;;;;;7.22;67.57;99593.19;5089492;28;20105;-79
2023/12/24 00:29:30;;;;;;;4.30;3.70;;;;;;;7.23;67.87;99588.72;5090009;28;20027;-78
2023/12/24 00:31:56;;;;;;;3.40;3.15;;;;;;;7.16;67.88;99582.16;5090250;28;20056;-78
2023/12/24 00:34:21;;;;;;;7.15;4.32;;;;;;;7.20;68.19;99579.13;5090044;28;20024;-77
2023/12/24 00:36:46;;;;;;;10.40;4.28;;;;;;;7.21;68.23;99570.13;5089860;28;20028;-79
2023/12/24 00:39:12;;;;;;;5.75;4.57;;;;;;;7.05;67.90;99559.03;5090463;28;20034;-79
2023/12/24 00:41:39;;;;;;;5.18;4.65;;;;;;;7.21;68.15;99578.16;5090306;28;20040;-78
2023/12/24 00:44:05;;;;;;;5.20;4.43;;;;;;;7.16;68.27;99583.03;5089978;28;20058;-77
2023/12/24 00:46:30;;;;;;;5.15;4.22;;;;;;;7.25;68.57;99587.59;5089648;28;20481;-80
2023/12/24 00:48:56;;;;;;;6.13;4.20;;;;;;;7.25;67.98;99563.53;5090442;28;20027;-78
2023/12/24 00:51:21;;;;;;;8.68;5.03;;;;;;;7.12;67.63;99554.88;5090325;28;20106;-79
2023/12/24 00:53:47;;;;;;;7.50;3.75;;;;;;;7.32;67.45;99579.91;5089858;28;20605;-81
2023/12/24 00:56:12;;;;;;;6.07;4.80;;;;;;;7.44;67.62;99581.53;5090194;28;20028;-77
2023/12/24 00:58:38;;;;;;;7.35;3.70;;;;;;;7.26;67.04;99556.38;5089762;28;20106;-81
2023/12/24 01:01:03;;;;;;;5.18;3.85;;;;;;;7.46;67.54;99601.81;5090639;28;20028;-79
2023/12/24 01:03:29;;;;;;;5.35;4.43;;;;;;;7.44;67.17;99593.09;5091449;28;20028;-78
2023/12/24 01:05:54;;;;;;;13.15;5.00;;;;;;;7.60;67.07;99598.84;5091719;28;20093;-78
2023/12/24 01:08:20;;;;;;;6.45;4.35;;;;;;;7.52;66.99;99587.94;5095563;28;20032;-80
2023/12/24 01:10:48;;;;;;;5.22;3.67;;;;;;;7.57;66.82;99572.34;5103698;28;20403;-78
2023/12/24 01:13:18;;;;;;;4.63;4.15;;;;;;;7.63;66.60;99587.88;5099966;28;20024;-80
2023/12/24 01:15:47;;;;;;;5.53;3.60;;;;;;;7.34;67.07;99556.59;5100131;28;20502;-77
2023/12/24 01:18:16;;;;;;;5.55;4.20;;;;;;;7.63;66.67;99603.09;5091115;28;20432;-77
2023/12/24 01:20:42;;;;;;;11.30;4.32;;;;;;;7.64;67.21;99602.13;5089100;28;20055;-79
2023/12/24 01:23:07;;;;;;;6.32;3.83;;;;;;;7.52;67.26;99595.97;5089306;28;20510;-78
2023/12/24 01:25:34;;;;;;;4.68;3.97;;;;;;;7.37;66.73;99556.31;5088599;28;20056;-76
2023/12/24 01:27:59;;;;;;;5.22;4.38;;;;;;;7.44;67.05;99587.75;5088842;28;20503;-77
2023/12/24 01:30:25;;;;;;;7.57;4.50;;;;;;;7.70;66.63;99614.09;5088893;28;20028;-81
2023/12/24 01:32:50;;;;;;;8.23;3.92;;;;;;;7.43;66.79;99570.00;5089520;28;20024;-77
2023/12/24 01:35:16;;;;;;;13.57;4.72;;;;;;;7.83;66.60;99628.16;5088566;28;20484;-77
2023/12/24 01:37:41;;;;;;;7.03;4.20;;;;;;;7.92;66.12;99604.09;5089481;28;20028;-79
2023/12/24 01:40:08;;;;;;;4.47;3.90;;;;;;;7.96;66.36;99626.09;5089053;28;20020;-81
2023/12/24 01:42:33;;;;;;;4.43;3.90;;;;;;;7.59;65.60;99559.69;5088851;28;20025;-79
2023/12/24 01:44:59;;;;;;;6.80;6.05;;;;;;;7.87;65.95;99616.19;5088830;28;20027;-81
2023/12/24 01:47:24;;;;;;;17.58;7.50;;;;;;;7.90;65.54;99613.22;5089302;28;20020;-78
2023/12/24 01:49:51;;;;;;;6.05;4.47;;;;;;;7.97;65.69;99630.47;5089109;28;20028;-78
2023/12/24 01:52:18;;;;;;;5.90;4.30;;;;;;;7.96;65.34;99610.88;5088541;28;20484;-80
2023/12/24 01:54:46;;;;;;;5.15;4.60;;;;;;;7.99;65.07;99620.47;5090900;28;20104;-77
2023/12/24 01:57:12;;;;;;;8.63;4.40;;;;;;;8.08;64.80;99609.81;5090351;28;20028;-77
2023/12/24 01:59:37;;;;;;;5.60;4.28;;;;;;;8.03;64.18;99605.84;5094582;28;20082;-79
2023/12/24 02:02:03;;;;;;;12.88;5.20;;;;;;;7.92;64.12;99581.84;5097885;28;20032;-81
2023/12/24 02:04:29;;;;;;;8.93;4.70;;;;;;;7.85;64.24;99588.69;5100024;28;20502;-78
2023/12/24 02:06:55;;;;;;;10.38;5.65;;;;;;;8.10;63.96;99639.16;5097322;28;20027;-80
2023/12/24 02:09:21;;;;;;;17.30;5.35;;;;;;;8.10;63.67;99623.09;5087721;28;20036;-78
2023/12/24 02:11:46;;;;;;;6.95;5.45;;;;;;;8.06;62.92;99621.63;5088887;28;20109;-78
2023/12/24 02:14:12;;;;;;;18.17;6.10;;;;;;;8.03;62.92;99620.09;5088376;28;20107;-78
2023/12/24 02:16:40;;;;;;;58.38;8.02;;;;;;;8.18;62.62;99636.63;5087941;28;20591;-80
2023/12/24 02:19:11;;;;;;;18.65;6.18;;;;;;;8.15;62.01;99627.03;5088312;28;20671;-77
2023/12/24 02:21:36;;;;;;;11.93;5.13;;;;;;;8.23;61.75;99642.44;5088168;28;20089;-77
2023/12/24 02:24:02;;;;;;;11.15;4.97;;;;;;;8.23;61.79;99643.28;5088285;28;20028;-78
2023/12/24 02:26:35;;;;;;;5.15;4.65;;;;;;;8.27;61.69;99662.63;5088108;28;20113;-77
2023/12/24 02:29:13;;;;;;;10.02;4.90;;;;;;;8.26;61.93;99671.63;5068905;28;20064;-76
2023/12/24 02:31:43;;;;;;;10.63;4.22;;;;;;;8.39;61.47;99687.50;5087870;28;20028;-77
2023/12/24 02:34:13;;;;;;;6.10;4.80;;;;;;;8.45;61.08;99690.50;5088345;28;20028;-77
2023/12/24 02:36:39;;;;;;;7.93;4.70;;;;;;;8.17;60.95;99649.16;5088464;28;20052;-78
2023/12/24 02:39:04;;;;;;;14.88;5.85;;;;;;;8.47;60.79;99706.47;5088304;28;20062;-78
2023/12/24 02:41:30;;;;;;;9.98;4.63;;;;;;;8.59;60.45;99702.72;5089176;28;20021;-79
2023/12/24 02:43:55;;;;;;;9.25;4.65;;;;;;;8.57;59.75;99692.09;5090590;28;20131;-79
2023/12/24 02:46:21;;;;;;;19.75;5.70;;;;;;;8.66;59.87;99718.09;5092938;28;20028;-79
2023/12/24 02:48:47;;;;;;;14.43;5.22;;;;;;;8.58;60.16;99699.19;5092512;28;20479;-80
2023/12/24 02:51:12;;;;;;;19.35;4.63;;;;;;;8.47;59.96;99688.53;5096187;28;20038;-80
2023/12/24 02:53:38;;;;;;;17.70;5.13;;;;;;;8.63;59.82;99702.28;5095658;28;20035;-78
2023/12/24 02:56:03;;;;;;;17.95;5.32;;;;;;;8.71;59.19;99726.56;5088435;28;20107;-78
2023/12/24 02:58:29;;;;;;;11.30;4.80;;;;;;;8.68;59.12;99748.28;5088833;28;20391;-80
2023/12/24 03:00:54;;;;;;;9.85;4.88;;;;;;;8.69;59.15;99735.75;5087974;28;20039;-79
2023/12/24 03:03:20;;;;;;;6.18;4.25;;;;;;;8.65;59.35;99745.88;5087551;28;20064;-81
2023/12/24 03:05:45;;;;;;;4.18;3.60;;;;;;;8.57;58.50;99740.34;5087117;28;20032;-82
2023/12/24 03:08:11;;;;;;;5.32;4.20;;;;;;;8.35;57.68;99735.16;5087721;28;20024;-80
2023/12/24 03:10:36;;;;;;;3.60;3.20;;;;;;;8.44;57.32;99771.88;5087866;28;20405;-77
2023/12/24 03:13:02;;;;;;;4.88;4.30;;;;;;;8.54;56.71;99763.88;5084030;28;20060;-78
2023/12/24 03:15:27;;;;;;;4.25;3.15;;;;;;;8.54;56.68;99759.38;5086047;28;20514;-80
2023/12/24 03:17:53;;;;;;;6.70;4.68;;;;;;;8.43;56.80;99737.19;5087416;28;20028;-78
2023/12/24 03:20:19;;;;;;;5.53;4.40;;;;;;;8.35;57.62;99743.19;5088714;28;20446;-78
2023/12/24 03:22:44;;;;;;;5.72;4.97;;;;;;;8.36;58.29;99736.84;5091580;28;20062;-79
2023/12/24 03:25:10;;;;;;;7.05;4.05;;;;;;;8.42;58.89;99741.69;5091847;28;20044;-79
2023/12/24 03:27:35;;;;;;;6.28;3.80;;;;;;;8.58;59.03;99750.09;5092077;28;20047;-78
2023/12/24 03:30:01;;;;;;;4.50;3.90;;;;;;;8.61;58.69;99757.88;5092383;28;20028;-78
2023/12/24 03:32:26;;;;;;;4.93;4.45;;;;;;;8.59;58.67;99735.69;5092981;28;20024;-77
2023/12/24 03:34:52;;;;;;;5.45;3.97;;;;;;;8.63;57.76;99738.97;5093068;28;20504;-81
2023/12/24 03:37:17;;;;;;;7.28;4.80;;;;;;;8.66;57.56;99739.53;5092863;28;20043;-78
2023/12/24 03:39:43;;;;;;;6.72;3.92;;;;;;;8.77;56.87;99768.94;5098009;28;20107;-80
2023/12/24 03:42:09;;;;;;;5.30;3.63;;;;;;;8.64;55.71;99751.38;5104862;28;20038;-81
2023/12/24 03:44:35;;;;;;;4.18;3.53;;;;;;;8.70;54.36;99766.94;5095274;28;20690;-77
2023/12/24 03:47:00;;;;;;;9.07;3.88;;;;;;;8.59;53.57;99749.09;5091176;28;20035;-78
2023/12/24 03:49:26;;;;;;;3.47;3.05;;;;;;;8.69;53.08;99767.91;5091381;28;20055;-81
2023/12/24 03:51:51;;;;;;;4.38;3.38;;;;;;;8.55;52.92;99752.19;5091410;28;20622;-78
2023/12/24 03:54:21;;;;;;;4.85;3.42;;;;;;;8.60;52.43;99793.69;5091385;28;20021;-77
2023/12/24 03:56:47;;;;;;;3.85;3.55;;;;;;;8.61;52.77;99803.44;5073142;28;20470;-78
2023/12/24 03:59:12;;;;;;;6.97;3.22;;;;;;;8.57;52.78;99793.94;5091368;28;20111;-79
2023/12/24 04:01:38;;;;;;;5.50;3.75;;;;;;;8.44;52.36;99787.94;5090828;28;20431;-80
2023/12/24 04:04:03;;;;;;;4.40;4.00;;;;;;;8.45;52.13;99819.13;5090604;28;20021;-77
2023/12/24 04:06:29;;;;;;;6.95;4.32;;;;;;;8.32;52.29;99813.09;5090413;28;20028;-82
2023/12/24 04:08:54;;;;;;;4.75;4.28;;;;;;;8.20;53.01;99808.75;5090649;28;20039;-78
2023/12/24 04:11:20;;;;;;;3.28;2.97;;;;;;;8.21;52.23;99797.06;5090790;28;20028;-82
2023/12/24 04:13:45;;;;;;;4.30;3.90;;;;;;;8.16;52.31;99812.69;5090364;28;20491;-78
2023/12/24 04:16:11;;;;;;;10.88;3.22;;;;;;;8.06;52.72;99839.38;5091088;28;20115;-79
2023/12/24 04:18:36;;;;;;;4.95;3.50;;;;;;;7.97;52.80;99825.91;5091116;28;20032;-79
2023/12/24 04:21:02;;;;;;;4.57;3.70;;;;;;;7.87;53.15;99819.63;5090818;28;20063;-78
2023/12/24 04:23:28;;;;;;;4.63;3.25;;;;;;;7.84;53.42;99822.53;5091892;28;20032;-79
2023/12/24 04:25:54;;;;;;;4.63;4.00;;;;;;;8.04;53.92;99851.22;5092485;28;20411;-79
2023/12/24 04:28:19;;;;;;;4.75;3.95;;;;;;;8.09;52.91;99868.59;5091424;28;20032;-79
2023/12/24 04:30:45;;;;;;;6.10;4.80;;;;;;;7.92;53.60;99846.88;5119814;28;20035;-78
2023/12/24 04:33:12;;;;;;;5.03;4.03;;;;;;;7.82;53.37;99837.91;5121147;28;20035;-84
2023/12/24 04:35:37;;;;;;;5.10;3.83;;;;;;;8.11;52.89;99871.97;5108615;28;20070;-77
2023/12/24 04:38:03;;;;;;;5.85;3.92;;;;;;;8.08;53.66;99903.50;5108098;28;20443;-78
2023/12/24 04:40:29;;;;;;;5.80;3.97;;;;;;;8.13;52.92;99909.34;5107821;28;20059;-79
2023/12/24 04:42:55;;;;;;;6.57;3.33;;;;;;;8.07;53.56;99912.53;5107980;28;20146;-79
2023/12/24 04:45:20;;;;;;;4.03;3.58;;;;;;;8.07;53.38;99928.63;5107714;28;20040;-77
2023/12/24 04:47:46;;;;;;;5.47;3.55;;;;;;;8.14;53.63;99936.00;5107709;28;20030;-77
2023/12/24 04:50:11;;;;;;;5.05;3.70;;;;;;;7.99;53.13;99926.53;5108013;28;20050;-79
2023/12/24 04:52:38;;;;;;;8.38;4.13;;;;;;;7.99;53.26;99947.13;5107495;28;20023;-79
2023/12/24 04:55:06;;;;;;;6.28;4.45;;;;;;;7.91;53.34;99933.50;5107703;28;20028;-79
2023/12/24 04:57:32;;;;;;;4.28;3.13;;;;;;;7.76;53.28;99924.91;5107328;28;20081;-78
2023/12/24 04:59:58;;;;;;;3.97;3.67;;;;;;;7.89;53.64;99962.25;5107355;28;20035;-80
2023/12/24 05:02:23;;;;;;;5.82;4.28;;;;;;;7.86;53.63;99957.97;5093872;28;20040;-80
2023/12/24 05:04:49;;;;;;;4.00;3.50;;;;;;;7.95;53.52;99962.56;5089448;28;20028;-80
2023/12/24 05:07:15;;;;;;;4.53;3.83;;;;;;;7.88;53.75;99961.38;5089393;28;20031;-78
2023/12/24 05:09:42;;;;;;;7.18;4.57;;;;;;;7.90;53.68;99969.28;5090281;28;20404;-80
2023/12/24 05:12:10;;;;;;;5.78;4.18;;;;;;;7.86;53.59;99968.66;5089888;28;20020;-77
2023/12/24 05:14:36;;;;;;;4.82;3.67;;;;;;;7.61;53.95;99940.34;5090796;28;20028;-82
2023/12/24 05:17:05;;;;;;;5.78;3.78;;;;;;;7.75;53.94;99967.84;5091264;28;20039;-77
2023/12/24 05:19:30;;;;;;;5.78;4.00;;;;;;;7.71;54.03;99974.41;5091766;28;20035;-77
2023/12/24 05:21:56;;;;;;;6.05;3.95;;;;;;;7.58;54.55;99959.31;5099756;28;20017;-81
2023/12/24 05:24:21;;;;;;;5.00;3.45;;;;;;;7.57;54.18;99987.06;5098300;28;20067;-82
2023/12/24 05:26:47;;;;;;;6.05;3.70;;;;;;;7.33;55.44;99938.19;5088714;28;20518;-79
2023/12/24 05:29:13;;;;;;;5.40;4.25;;;;;;;7.56;55.72;99993.38;5089115;28;20541;-79
2023/12/24 05:31:39;;;;;;;5.18;4.63;;;;;;;7.44;55.87;99983.66;5089381;28;20411;-79
2023/12/24 05:34:05;;;;;;;7.45;4.22;;;;;;;7.45;55.27;99990.72;5089446;28;20028;-80
2023/12/24 05:36:32;;;;;;;4.25;3.70;;;;;;;7.50;56.41;99987.66;5087015;28;20089;-80
2023/12/24 05:38:58;;;;;;;5.72;4.30;;;;;;;7.42;56.20;99990.97;5088251;28;20078;-83
2023/12/24 05:41:24;;;;;;;12.82;4.50;;;;;;;7.52;55.22;100024.03;5089289;28;20043;-84
2023/12/24 05:43:49;;;;;;;4.97;3.80;;;;;;;7.55;55.18;100029.13;5088042;28;20032;-83
2023/12/24 05:46:15;;;;;;;7.78;4.93;;;;;;;7.35;55.20;100011.13;5088955;28;20031;-82
2023/12/24 05:48:41;;;;;;;10.50;4.10;;;;;;;7.53;54.92;100040.94;5088497;28;20040;-80
2023/12/24 05:51:07;;;;;;;7.15;4.60;;;;;;;7.37;54.81;100030.56;5087228;28;20047;-79
2023/12/24 05:53:33;;;;;;;5.78;4.20;;;;;;;7.29;54.86;100026.78;5089166;28;20051;-79
2023/12/24 05:55:59;;;;;;;5.85;4.38;;;;;;;7.31;54.96;100047.09;5089186;28;20034;-78
2023/12/24 05:58:25;;;;;;;4.70;4.03;;;;;;;7.30;55.08;100045.41;5089210;28;20020;-79
2023/12/24 06:00:52;;;;;;;7.25;4.63;;;;;;;7.20;54.98;100038.19;5088238;28;20051;-79
2023/12/24 06:03:17;;;;;;;10.75;5.20;;;;;;;7.32;55.32;100064.84;5089274;28;20111;-82
2023/12/24 06:05:44;;;;;;;11.52;5.45;;;;;;;7.41;55.66;100085.56;5091363;28;20095;-78
2023/12/24 06:08:14;;;;;;;13.85;5.82;;;;;;;7.44;55.43;100085.31;5089893;28;20070;-78
2023/12/24 06:10:40;;;;;;;11.13;6.38;;;;;;;7.57;55.43;100090.56;5097605;28;20020;-80
2023/12/24 06:13:05;;;;;;;22.60;6.95;;;;;;;7.66;55.07;100088.03;5103654;28;20046;-83
2023/12/24 06:15:31;;;;;;;9.93;5.88;;;;;;;7.68;54.73;100074.53;5090409;28;20070;-78
2023/12/24 06:17:57;;;;;;;7.95;6.15;;;;;;;7.82;54.50;100082.34;5088224;28;20500;-79
2023/12/24 06:20:22;;;;;;;10.38;6.68;;;;;;;7.84;54.88;100087.56;5088632;28;20020;-81
2023/12/24 06:22:48;;;;;;;8.25;6.00;;;;;;;7.91;54.60;100086.13;5088347;28;20051;-79
2023/12/24 06:25:14;;;;;;;6.72;5.72;;;;;;;7.82;54.61;100065.44;5089059;28;20424;-84
2023/12/24 06:27:39;;;;;;;8.38;5.82;;;;;;;7.97;54.55;100082.94;5089271;28;20032;-83
2023/12/24 06:30:05;;;;;;;19.00;8.73;;;;;;;7.95;54.84;100071.53;5090108;28;20028;-81
2023/12/24 06:32:31;;;;;;;13.75;5.93;;;;;;;8.01;54.77;100095.13;5089021;28;20503;-82
2023/12/24 06:34:57;;;;;;;15.00;8.20;;;;;;;8.01;54.33;100079.06;5088881;28;20024;-82
2023/12/24 06:37:23;;;;;;;16.08;8.73;;;;;;;8.09;54.25;100090.88;5088680;28;20372;-80
2023/12/24 06:39:48;;;;;;;12.52;6.55;;;;;;;8.10;54.10;100084.50;5087973;28;20032;-79
2023/12/24 06:42:14;;;;;;;15.43;7.18;;;;;;;8.12;53.73;100095.13;5088853;28;20048;-80
2023/12/24 06:44:41;;;;;;;12.52;6.22;;;;;;;8.11;53.68;100080.88;5088628;28;20035;-82
2023/12/24 06:47:07;;;;;;;13.80;6.50;;;;;;;8.06;53.69;100092.94;5088659;28;20016;-81
2023/12/24 06:49:32;;;;;;;12.95;6.68;;;;;;;8.17;53.74;100103.63;5086305;28;20100;-81
2023/12/24 06:51:58;;;;;;;10.18;7.07;;;;;;;8.17;53.68;100090.22;5080039;28;20032;-82
2023/12/24 06:54:23;;;;;;;11.68;7.78;;;;;;;8.29;53.39;100129.47;5089455;28;20039;-80
2023/12/24 06:56:49;;;;;;;9.90;6.65;;;;;;;8.15;53.92;100098.41;5091634;28;20020;-79
2023/12/24 06:59:14;;;;;;;17.75;7.35;;;;;;;8.38;53.61;100136.78;5088530;28;20048;-86
2023/12/24 07:01:40;;;;;;;14.45;8.77;;;;;;;8.36;54.00;100143.22;5109220;28;20066;-89
2023/12/24 07:04:05;;;;;;;15.13;7.93;;;;;;;8.33;53.48;100119.38;5107748;28;20127;-85
2023/12/24 07:06:31;;;;;;;12.18;7.22;;;;;;;8.49;53.79;100136.78;5093343;28;20036;-83
2023/12/24 07:08:56;;;;;;;15.32;6.38;;;;;;;8.42;53.42;100127.53;5093715;28;20039;-83
2023/12/24 07:11:22;;;;;;;11.23;6.07;;;;;;;8.28;53.62;100092.97;5080204;28;20040;-81
2023/12/24 07:13:47;;;;;;;22.88;6.90;;;;;;;8.47;53.76;100122.63;5091134;28;20032;-82
2023/12/24 07:16:13;;;;;;;11.30;5.78;;;;;;;8.34;53.35;100103.19;5077074;28;20032;-85
2023/12/24 07:18:39;;;;;;;11.80;6.47;;;;;;;8.46;53.47;100115.59;5092168;28;20233;-81
2023/12/24 07:21:05;;;;;;;11.88;6.82;;;;;;;8.68;53.17;100146.88;5083308;28;20020;-83
2023/12/24 07:23:31;;;;;;;16.40;6.95;;;;;;;8.63;53.23;100131.13;5088420;28;20031;-79
2023/12/24 07:25:56;;;;;;;14.88;6.60;;;;;;;8.70;53.20;100127.00;5075069;28;20989;-82
2023/12/24 07:28:22;;;;;;;11.07;6.70;;;;;;;8.89;52.96;100152.31;5095907;28;20074;-81
2023/12/24 07:30:47;;;;;;;33.70;7.05;;;;;;;8.96;53.29;100153.50;5084052;28;20094;-77
2023/12/24 07:33:13;;;;;;;16.55;6.22;;;;;;;9.04;53.09;100145.69;5082732;28;20443;-79
2023/12/24 07:35:39;;;;;;;32.05;6.47;;;;;;;9.09;52.64;100146.13;5078583;28;20032;-73
2023/12/24 07:38:05;;;;;;;16.30;6.25;;;;;;;9.12;52.78;100148.56;5091404;28;20027;-78
2023/12/24 07:40:31;;;;;;;27.70;10.35;;;;;;;9.07;52.34;100121.28;5084498;28;20757;-78
2023/12/24 07:42:59;;;;;;;50.35;9.75;;;;;;;9.21;52.15;100145.97;5080497;28;20028;-76
2023/12/24 07:45:26;;;;;;;9.23;5.82;;;;;;;9.25;52.02;100154.63;5091554;28;20129;-78
2023/12/24 07:47:52;;;;;;;13.50;6.40;;;;;;;9.10;52.21;100158.56;5091879;28;20066;-80
2023/12/24 07:50:17;;;;;;;12.30;8.18;;;;;;;9.28;52.22;100165.09;5094656;28;20036;-79
2023/12/24 07:52:43;;;;;;;11.45;6.35;;;;;;;9.09;51.56;100147.00;5089030;28;20530;-78
2023/12/24 07:55:08;;;;;;;21.70;7.40;;;;;;;9.31;52.11;100180.94;5082813;28;20085;-80
2023/12/24 07:57:34;;;;;;;15.43;6.60;;;;;;;9.15;52.23;100138.44;5076179;28;20486;-78
2023/12/24 07:59:59;;;;;;;7.85;5.55;;;;;;;9.32;51.25;100182.66;5088247;28;20028;-80
2023/12/24 08:02:25;;;;;;;6.97;5.55;;;;;;;9.34;51.51;100159.22;5090572;28;20522;-81
2023/12/24 08:04:54;;;;;;;7.50;5.28;;;;;;;9.35;51.80;100160.06;5090563;28;20032;-75
2023/12/24 08:07:19;;;;;;;9.30;5.35;;;;;;;9.55;51.21;100162.78;5077410;28;20364;-82
2023/12/24 08:09:45;;;;;;;13.05;5.40;;;;;;;9.29;50.88;100123.88;5070520;28;20028;-86
2023/12/24 08:12:11;;;;;;;16.55;5.53;;;;;;;9.48;50.52;100145.47;5076162;28;20028;-80
2023/12/24 08:14:36;;;;;;;16.80;6.00;;;;;;;9.84;50.83;100201.44;5091426;28;20445;-80
2023/12/24 08:17:05;;;;;;;17.08;5.43;;;;;;;9.91;51.26;100200.94;5090760;28;20055;-78
2023/12/24 08:19:30;;;;;;;10.13;4.25;;;;;;;9.91;52.05;100203.63;5088934;28;20053;-80
2023/12/24 08:21:55;;;;;;;8.60;4.60;;;;;;;9.90;51.99;100177.72;5090967;28;20500;-78
2023/12/24 08:24:21;;;;;;;24.33;5.80;;;;;;;10.18;51.86;100212.03;5090051;28;20020;-77
2023/12/24 08:26:46;;;;;;;15.50;5.80;;;;;;;10.17;51.98;100202.25;5089609;28;20036;-79
2023/12/24 08:29:12;;;;;;;22.50;5.70;;;;;;;10.18;51.39;100171.72;5091754;28;20088;-81
2023/12/24 08:31:37;;;;;;;17.83;4.70;;;;;;;10.29;51.79;100206.56;5092060;28;20024;-83
2023/12/24 08:34:03;;;;;;;17.15;5.70;;;;;;;10.52;51.70;100213.44;5090257;28;20434;-81
2023/12/24 08:36:28;;;;;;;15.23;5.18;;;;;;;10.63;51.53;100189.19;5093295;28;20035;-79
2023/12/24 08:38:54;;;;;;;11.80;5.07;;;;;;;10.82;51.80;100210.75;5089484;28;20044;-80
2023/12/24 08:41:19;;;;;;;12.52;5.13;;;;;;;10.93;50.86;100223.25;5096824;28;20085;-83
2023/12/24 08:43:45;;;;;;;14.30;4.75;;;;;;;10.88;50.59;100202.16;5113712;28;20043;-84
2023/12/24 08:46:11;;;;;;;15.32;4.70;;;;;;;11.03;51.08;100225.97;5109376;28;20044;-83
2023/12/24 08:48:37;;;;;;;13.52;5.40;;;;;;;11.19;50.60;100223.63;5092747;28;20027;-83
2023/12/24 08:51:03;;;;;;;13.13;5.72;;;;;;;11.22;50.08;100216.09;5093461;28;20035;-87
2023/12/24 08:53:29;;;;;;;17.70;6.47;;;;;;;11.15;50.56;100222.19;5092302;28;20032;-83
2023/12/24 08:55:55;;;;;;;14.38;5.53;;;;;;;10.99;50.75;100182.34;5090695;28;20024;-84
2023/12/24 08:58:20;;;;;;;11.27;5.57;;;;;;;11.15;50.91;100219.50;5092428;28;20119;-84
2023/12/24 09:00:46;;;;;;;13.15;4.90;;;;;;;11.12;51.36;100222.47;5090915;28;20112;-83
2023/12/24 09:03:11;;;;;;;5.53;3.72;;;;;;;11.17;51.80;100201.34;5091093;28;20039;-84
2023/12/24 09:05:38;;;;;;;12.65;4.32;;;;;;;11.50;51.72;100221.69;5090423;28;20032;-84
2023/12/24 09:08:04;;;;;;;10.95;4.18;;;;;;;11.61;50.94;100225.09;5089098;28;20044;-83
2023/12/24 09:10:30;;;;;;;4.25;3.85;;;;;;;11.65;50.47;100231.88;5090791;28;20028;-83
2023/12/24 09:12:55;;;;;;;9.73;2.97;;;;;;;11.76;50.67;100229.09;5091413;28;20085;-83
2023/12/24 09:15:21;;;;;;;4.43;3.22;;;;;;;11.81;50.64;100237.59;5091468;28;20414;-83
2023/12/24 09:17:46;;;;;;;4.75;3.40;;;;;;;11.62;50.91;100216.00;5091011;28;20024;-83
2023/12/24 09:20:12;;;;;;;13.13;3.50;;;;;;;11.75;50.98;100218.44;5090582;28;20024;-83
2023/12/24 09:22:37;;;;;;;8.82;5.03;;;;;;;11.82;50.55;100227.66;5073712;28;20063;-79
2023/12/24 09:25:04;;;;;;;6.07;3.70;;;;;;;11.74;50.31;100212.19;5070338;28;20056;-77
2023/12/24 09:27:30;;;;;;;6.63;3.83;;;;;;;11.81;50.71;100221.41;5073437;28;20037;-82
2023/12/24 09:29:55;;;;;;;10.40;3.75;;;;;;;11.88;50.71;100222.56;5090693;28;20058;-80
2023/12/24 09:32:21;;;;;;;10.15;3.28;;;;;;;11.98;50.69;100233.34;5081165;28;20404;-78
2023/12/24 09:34:46;;;;;;;10.70;4.20;;;;;;;12.17;51.13;100213.59;5081049;28;20024;-80
2023/12/24 09:37:12;;;;;;;11.38;4.35;;;;;;;12.50;50.71;100207.66;5090831;28;20032;-87
2023/12/24 09:39:37;;;;;;;11.38;5.43;;;;;;;12.81;50.57;100206.38;5088866;28;20032;-82
2023/12/24 09:42:03;;;;;;;10.05;4.82;;;;;;;12.98;49.94;100202.91;5089641;28;20111;-81
2023/12/24 09:44:29;;;;;;;6.53;4.15;;;;;;;13.14;49.55;100209.53;5090172;28;20055;-83
2023/12/24 09:46:55;;;;;;;8.60;3.97;;;;;;;13.22;49.28;100194.25;5089337;28;20053;-83
2023/12/24 09:49:21;;;;;;;8.20;3.80;;;;;;;13.49;49.01;100199.59;5088279;28;20032;-80
2023/12/24 09:51:46;;;;;;;4.40;3.80;;;;;;;13.62;48.51;100201.94;5089433;28;20472;-80
2023/12/24 09:54:13;;;;;;;8.07;3.80;;;;;;;13.92;48.13;100197.97;5089408;28;20031;-84
2023/12/24 09:56:39;;;;;;;4.93;3.97;;;;;;;14.10;47.34;100196.06;5071840;28;20028;-81
2023/12/24 09:59:04;;;;;;;6.82;3.92;;;;;;;14.24;46.97;100198.22;5089287;28;20024;-84
2023/12/24 10:01:43;;;;;;;10.65;4.65;;;;;;;14.42;46.79;100199.06;5089615;28;20024;-82
2023/12/24 10:04:09;;;;;;;8.65;4.72;;;;;;;14.41;46.68;100180.25;5089975;28;20095;-80
2023/12/24 10:06:51;;;;;;;6.68;4.00;;;;;;;14.43;46.55;100175.56;5089396;28;20549;-82
2023/12/24 10:09:16;;;;;;;11.93;4.13;;;;;;;14.46;46.37;100159.81;5088721;28;20017;-81
2023/12/24 10:11:42;;;;;;;12.70;5.13;;;;;;;14.60;46.31;100188.16;5090596;28;20089;-81
2023/12/24 10:14:07;;;;;;;8.02;4.68;;;;;;;14.50;46.66;100155.78;5092224;28;20028;-81
2023/12/24 10:16:43;;;;;;;8.27;5.55;;;;;;;14.58;46.96;100146.88;5091240;28;20085;-79
2023/12/24 10:19:09;;;;;;;11.57;4.32;;;;;;;14.60;46.87;100134.03;5104085;28;20060;-81
2023/12/24 10:21:34;;;;;;;7.07;3.65;;;;;;;14.79;46.68;100138.31;5101738;28;20318;-81
2023/12/24 10:24:05;;;;;;;7.10;4.78;;;;;;;14.97;47.02;100158.88;5088062;28;20023;-78
2023/12/24 10:26:30;;;;;;;4.70;3.67;;;;;;;14.92;47.11;100150.38;5090744;28;20060;-80
2023/12/24 10:28:56;;;;;;;8.13;4.50;;;;;;;14.87;47.64;100136.50;5090290;28;20411;-83
2023/12/24 10:31:22;;;;;;;7.57;3.67;;;;;;;15.15;47.31;100145.22;5089629;28;20035;-79
2023/12/24 10:33:47;;;;;;;6.00;4.30;;;;;;;15.32;47.51;100152.34;5088537;28;20089;-79
2023/12/24 10:36:13;;;;;;;8.10;4.55;;;;;;;15.12;46.87;100111.19;5080171;28;20499;-78
2023/12/24 10:38:38;;;;;;;7.82;4.70;;;;;;;15.23;47.37;100140.66;5088067;28;20030;-78
2023/12/24 10:41:07;;;;;;;11.18;4.55;;;;;;;15.17;46.94;100130.47;5086592;28;20032;-79
2023/12/24 10:43:33;;;;;;;8.70;4.43;;;;;;;15.23;46.68;100142.50;5088633;28;20031;-78
2023/12/24 10:45:58;;;;;;;15.07;6.40;;;;;;;15.01;46.47;100144.00;5088709;28;20412;-79
2023/12/24 10:48:24;;;;;;;4.35;3.75;;;;;;;14.52;46.39;100147.53;5087817;28;20032;-80
2023/12/24 10:50:52;;;;;;;8.63;3.45;;;;;;;14.41;47.08;100139.66;5088443;28;20556;-77
2023/12/24 10:53:18;;;;;;;12.77;3.63;;;;;;;14.07;47.19;100126.94;5088139;28;20013;-77
2023/12/24 10:56:17;;;;;;;18.27;4.97;;;;;;;14.02;47.29;100123.88;5088696;28;20462;-81
2023/12/24 10:58:49;;;;;;;8.35;4.07;;;;;;;13.87;47.38;100119.19;5051793;28;20033;-80
2023/12/24 11:01:15;;;;;;;16.70;5.95;;;;;;;13.76;47.64;100111.34;5067286;28;20063;-79
2023/12/24 11:03:48;;;;;;;7.60;3.72;;;;;;;13.64;48.42;100122.41;5066020;28;20021;-80
2023/12/24 11:06:40;;;;;;;15.55;4.53;;;;;;;13.78;48.21;100093.97;5065347;28;20024;-81
2023/12/24 11:09:14;;;;;;;8.88;4.40;;;;;;;13.89;48.44;100091.00;5076168;28;20032;-80
2023/12/24 11:11:52;;;;;;;22.17;5.53;;;;;;;13.90;48.18;100051.31;5071305;28;20451;-79
2023/12/24 11:14:36;;;;;;;16.42;4.18;;;;;;;14.23;47.75;100087.47;5065121;28;20040;-79
2023/12/24 11:17:02;;;;;;;8.65;4.00;;;;;;;14.00;47.98;100054.75;5065209;28;20083;-78
2023/12/24 11:19:28;;;;;;;5.28;3.25;;;;;;;14.21;47.94;100098.47;5065486;28;20032;-80
2023/12/24 11:22:11;;;;;;;11.23;3.75;;;;;;;14.19;47.33;100033.69;5065258;28;20045;-79
2023/12/24 11:24:42;;;;;;;11.63;4.38;;;;;;;14.70;47.11;100103.13;5048236;28;20048;-79
2023/12/24 11:27:09;;;;;;;11.27;4.30;;;;;;;14.80;46.77;100104.84;5065069;28;20059;-79